Wetterdaten: Woche 30.12.13 - 05.01.14 (KW1)
Datum Zeit Temp. A. Feuchte A. Luftdruck Regen Wind Richtung Taupunkt Windchill Windben
30.12.2013 00:00 7,3 C 65 % 1026,0 hPa 0,0 l/m 6,8 km/h N 1,2 C 6,7 C 17,7 km/h
30.12.2013 01:00 6,8 C 67 % 1026,6 hPa 0,0 l/m 2,3 km/h N 1,1 C 6,8 C 9,3 km/h
30.12.2013 02:00 6,3 C 69 % 1027,0 hPa 0,0 l/m 1,5 km/h N 1,0 C 6,3 C 6,4 km/h
30.12.2013 03:00 6,1 C 69 % 1027,1 hPa 0,0 l/m 1,4 km/h N 0,8 C 6,1 C 10,9 km/h
30.12.2013 04:00 5,8 C 70 % 1027,7 hPa 0,0 l/m 0,5 km/h N 0,7 C 5,8 C 4,8 km/h
30.12.2013 05:00 5,4 C 72 % 1028,1 hPa 0,0 l/m 0,9 km/h N 0,7 C 5,4 C 6,4 km/h
30.12.2013 06:00 5,4 C 72 % 1028,8 hPa 0,0 l/m 2,4 km/h N 0,7 C 5,4 C 8,4 km/h
30.12.2013 07:00 5,1 C 73 % 1029,5 hPa 0,0 l/m 1,9 km/h N 0,6 C 5,1 C 8,4 km/h
30.12.2013 08:00 5,3 C 74 % 1030,0 hPa 0,0 l/m 1,5 km/h N 1,0 C 5,3 C 6,8 km/h
30.12.2013 09:00 5,6 C 74 % 1030,4 hPa 0,0 l/m 2,9 km/h N 1,3 C 5,6 C 8,8 km/h
30.12.2013 10:00 6,2 C 70 % 1030,5 hPa 0,0 l/m 6,3 km/h N 1,1 C 6,0 C 18,5 km/h
30.12.2013 11:00 6,5 C 69 % 1029,9 hPa 0,0 l/m 3,7 km/h N 1,3 C 6,5 C 11,7 km/h
30.12.2013 12:00 6,9 C 68 % 1029,3 hPa 0,0 l/m 3,2 km/h N 1,4 C 6,9 C 9,7 km/h
30.12.2013 13:00 6,9 C 68 % 1029,0 hPa 0,0 l/m 3,7 km/h N 1,3 C 6,9 C 11,3 km/h
30.12.2013 14:00 6,6 C 69 % 1028,5 hPa 0,0 l/m 2,5 km/h N 1,3 C 6,6 C 8,9 km/h
30.12.2013 15:00 5,9 C 71 % 1028,4 hPa 0,0 l/m 1,5 km/h N 1,0 C 5,9 C 7,2 km/h
30.12.2013 16:00 5,3 C 73 % 1028,5 hPa 0,0 l/m 0,2 km/h N 0,8 C 5,3 C 2,4 km/h
30.12.2013 17:00 4,4 C 74 % 1028,4 hPa 0,0 l/m 0,0 km/h N 0,3 C 4,4 C 0,0 km/h
30.12.2013 18:00 3,8 C 78 % 1028,3 hPa 0,0 l/m 0,0 km/h N 0,2 C 3,8 C 0,0 km/h
30.12.2013 19:00 3,5 C 80 % 1028,2 hPa 0,0 l/m 0,2 km/h N 0,4 C 3,5 C 1,6 km/h
30.12.2013 20:00 3,7 C 80 % 1027,9 hPa 0,0 l/m 0,2 km/h N 0,6 C 3,7 C 2,4 km/h
30.12.2013 21:00 3,5 C 80 % 1027,6 hPa 0,0 l/m 0,0 km/h N 0,3 C 3,5 C 0,0 km/h
30.12.2013 22:00 3,0 C 81 % 1027,5 hPa 0,0 l/m 0,0 km/h N 0,1 C 3,0 C 0,0 km/h
30.12.2013 23:00 2,8 C 82 % 1027,3 hPa 0,0 l/m 0,0 km/h N 0,1 C 2,8 C 0,0 km/h
31.12.2013 00:00 2,6 C 83 % 1026,9 hPa 0,0 l/m 0,0 km/h N 0,0 C 2,6 C 0,0 km/h
31.12.2013 01:00 2,5 C 85 % 1026,7 hPa 0,0 l/m 0,0 km/h N 0,3 C 2,5 C 0,0 km/h
31.12.2013 02:00 2,6 C 85 % 1026,6 hPa 0,0 l/m 0,0 km/h N 0,3 C 2,6 C 0,0 km/h
31.12.2013 03:00 2,6 C 85 % 1026,2 hPa 0,0 l/m 0,0 km/h N 0,3 C 2,6 C 0,0 km/h
31.12.2013 04:00 2,7 C 85 % 1025,8 hPa 0,0 l/m 0,0 km/h N 0,4 C 2,7 C 0,0 km/h
31.12.2013 05:00 2,7 C 85 % 1025,6 hPa 0,0 l/m 0,0 km/h N 0,4 C 2,7 C 0,0 km/h
31.12.2013 06:00 2,8 C 85 % 1025,3 hPa 0,0 l/m 0,1 km/h N 0,5 C 2,8 C 1,2 km/h
31.12.2013 07:00 2,9 C 86 % 1025,1 hPa 0,0 l/m 0,8 km/h N 0,8 C 2,9 C 4,4 km/h
31.12.2013 08:00 2,9 C 85 % 1025,3 hPa 0,0 l/m 1,9 km/h N 0,7 C 2,9 C 6,0 km/h
31.12.2013 09:00 3,1 C 85 % 1025,3 hPa 0,0 l/m 1,9 km/h N 0,8 C 3,1 C 6,8 km/h
31.12.2013 10:00 3,3 C 85 % 1025,4 hPa 0,0 l/m 2,1 km/h N 1,0 C 3,3 C 6,8 km/h
31.12.2013 11:00 3,5 C 85 % 1024,7 hPa 0,0 l/m 0,7 km/h N 1,2 C 3,5 C 3,6 km/h
31.12.2013 12:00 3,8 C 85 % 1023,8 hPa 0,0 l/m 0,0 km/h N 1,5 C 3,8 C 1,2 km/h
31.12.2013 13:00 4,0 C 85 % 1023,1 hPa 0,3 l/m 0,5 km/h N 1,7 C 4,0 C 3,6 km/h
31.12.2013 14:00 4,0 C 85 % 1022,7 hPa 0,0 l/m 1,5 km/h N 1,7 C 4,0 C 6,4 km/h
31.12.2013 15:00 4,0 C 85 % 1022,2 hPa 0,0 l/m 0,8 km/h N 1,7 C 4,0 C 4,8 km/h
31.12.2013 16:00 4,1 C 85 % 1021,9 hPa 0,0 l/m 4,6 km/h N 1,8 C 4,1 C 14,1 km/h
31.12.2013 17:00 4,0 C 86 % 1021,7 hPa 0,0 l/m 5,3 km/h N 1,8 C 4,0 C 16,1 km/h
31.12.2013 18:00 3,8 C 86 % 1021,6 hPa 0,0 l/m 2,5 km/h N 1,7 C 3,8 C 8,5 km/h
31.12.2013 19:00 3,4 C 86 % 1021,4 hPa 0,0 l/m 0,7 km/h N 1,3 C 3,4 C 5,2 km/h
31.12.2013 20:00 3,5 C 86 % 1021,2 hPa 0,0 l/m 2,5 km/h N 1,4 C 3,5 C 10,4 km/h
31.12.2013 21:00 3,6 C 85 % 1020,6 hPa 0,0 l/m 4,9 km/h N 1,3 C 3,6 C 16,9 km/h
31.12.2013 22:00 3,3 C 85 % 1019,9 hPa 0,0 l/m 5,6 km/h N 1,0 C 3,1 C 12,9 km/h
31.12.2013 23:00 3,4 C 84 % 1019,5 hPa 0,0 l/m 3,9 km/h N 0,9 C 3,4 C 12,1 km/h
01.01.2014 00:00 3,3 C 84 % 1019,0 hPa 0,0 l/m 2,6 km/h N 0,8 C 3,3 C 9,3 km/h
01.01.2014 01:00 3,1 C 84 % 1018,7 hPa 0,0 l/m 0,4 km/h N 0,7 C 3,1 C 3,6 km/h
01.01.2014 02:00 3,3 C 84 % 1018,8 hPa 0,0 l/m 1,6 km/h N 0,8 C 3,3 C 8,1 km/h
01.01.2014 03:00 3,6 C 84 % 1018,1 hPa 0,0 l/m 8,5 km/h N 1,2 C 1,7 C 21,3 km/h
01.01.2014 04:00 3,7 C 84 % 1018,0 hPa 0,0 l/m 3,0 km/h N 1,3 C 3,7 C 11,3 km/h
01.01.2014 05:00 3,8 C 84 % 1017,9 hPa 0,0 l/m 4,6 km/h N 1,3 C 3,8 C 13,3 km/h
01.01.2014 06:00 3,8 C 83 % 1017,9 hPa 0,0 l/m 3,8 km/h N 1,2 C 3,8 C 11,7 km/h
01.01.2014 07:00 3,8 C 84 % 1018,1 hPa 0,0 l/m 2,5 km/h N 1,4 C 3,8 C 9,6 km/h
01.01.2014 08:00 3,8 C 84 % 1018,5 hPa 0,0 l/m 0,9 km/h N 1,4 C 3,8 C 5,6 km/h
01.01.2014 09:00 4,0 C 84 % 1019,3 hPa 0,0 l/m 0,2 km/h N 1,5 C 4,0 C 3,6 km/h
01.01.2014 10:00 4,3 C 84 % 1019,7 hPa 0,0 l/m 0,0 km/h N 1,8 C 4,3 C 0,8 km/h
01.01.2014 11:00 4,5 C 85 % 1019,7 hPa 0,0 l/m 0,3 km/h N 2,2 C 4,5 C 3,6 km/h
01.01.2014 12:00 4,9 C 82 % 1019,3 hPa 0,0 l/m 0,6 km/h N 2,2 C 4,9 C 5,2 km/h
01.01.2014 13:00 5,4 C 79 % 1019,0 hPa 0,0 l/m 0,8 km/h N 2,0 C 5,4 C 5,2 km/h
01.01.2014 14:00 6,2 C 75 % 1018,9 hPa 0,0 l/m 1,8 km/h N 2,0 C 6,2 C 8,0 km/h
01.01.2014 15:00 6,0 C 76 % 1018,9 hPa 0,0 l/m 1,5 km/h N 2,1 C 6,0 C 6,4 km/h
01.01.2014 16:00 4,7 C 78 % 1018,9 hPa 0,0 l/m 0,2 km/h N 1,2 C 4,7 C 2,0 km/h
01.01.2014 17:00 3,2 C 84 % 1019,1 hPa 0,0 l/m 0,3 km/h N 0,7 C 3,2 C 3,6 km/h
01.01.2014 18:00 2,8 C 86 % 1019,0 hPa 0,0 l/m 0,8 km/h N 0,6 C 2,8 C 4,4 km/h
01.01.2014 19:00 2,0 C 85 % 1019,0 hPa 0,0 l/m 1,7 km/h N -0,3 C 2,0 C 6,4 km/h
01.01.2014 20:00 1,7 C 85 % 1018,8 hPa 0,0 l/m 1,4 km/h N -0,5 C 1,7 C 7,2 km/h
01.01.2014 21:00 1,1 C 85 % 1018,5 hPa 0,0 l/m 2,3 km/h N -1,2 C 1,1 C 7,6 km/h
01.01.2014 22:00 0,6 C 84 % 1018,1 hPa 0,0 l/m 0,8 km/h N -1,8 C 0,6 C 4,4 km/h
01.01.2014 23:00 0,7 C 83 % 1017,3 hPa 0,0 l/m 1,1 km/h N -1,9 C 0,7 C 5,2 km/h
02.01.2014 00:00 0,9 C 82 % 1016,0 hPa 0,0 l/m 1,3 km/h N -1,8 C 0,9 C 6,0 km/h
02.01.2014 01:00 1,3 C 81 % 1014,8 hPa 0,0 l/m 1,2 km/h N -1,5 C 1,3 C 7,3 km/h
02.01.2014 02:00 1,8 C 81 % 1014,0 hPa 0,3 l/m 1,6 km/h N -1,1 C 1,8 C 8,4 km/h
02.01.2014 03:00 1,8 C 81 % 1012,8 hPa 0,0 l/m 5,3 km/h N -1,0 C 1,8 C 14,9 km/h
02.01.2014 04:00 1,7 C 84 % 1011,9 hPa 0,0 l/m 3,2 km/h N -0,8 C 1,7 C 10,1 km/h
02.01.2014 05:00 2,3 C 86 % 1011,5 hPa 0,0 l/m 4,3 km/h N 0,1 C 2,3 C 17,3 km/h
02.01.2014 06:00 2,8 C 84 % 1011,1 hPa 0,0 l/m 9,0 km/h N 0,4 C 0,5 C 21,7 km/h
02.01.2014 07:00 2,9 C 83 % 1010,9 hPa 0,0 l/m 5,6 km/h N 0,3 C 2,8 C 15,3 km/h
02.01.2014 08:00 2,9 C 82 % 1010,7 hPa 0,0 l/m 4,1 km/h N 0,2 C 2,9 C 10,9 km/h
02.01.2014 09:00 3,3 C 82 % 1010,5 hPa 0,0 l/m 2,4 km/h N 0,5 C 3,3 C 8,9 km/h
02.01.2014 10:00 4,8 C 79 % 1010,2 hPa 0,0 l/m 3,2 km/h N 1,5 C 4,8 C 9,6 km/h
02.01.2014 11:00 5,8 C 76 % 1009,9 hPa 0,0 l/m 1,9 km/h N 1,8 C 5,8 C 9,3 km/h
02.01.2014 12:00 6,5 C 69 % 1009,7 hPa 0,0 l/m 1,0 km/h N 1,2 C 6,5 C 5,6 km/h
02.01.2014 13:00 6,7 C 70 % 1010,1 hPa 0,0 l/m 1,4 km/h N 1,5 C 6,7 C 7,6 km/h
02.01.2014 14:00 6,2 C 72 % 1010,5 hPa 0,0 l/m 1,8 km/h N 1,5 C 6,2 C 7,2 km/h
02.01.2014 15:00 5,2 C 71 % 1011,2 hPa 0,0 l/m 2,0 km/h N 0,4 C 5,2 C 7,6 km/h
02.01.2014 16:00 3,9 C 74 % 1011,9 hPa 0,0 l/m 1,1 km/h N -0,4 C 3,9 C 5,2 km/h
02.01.2014 17:00 2,4 C 75 % 1012,9 hPa 0,0 l/m 0,1 km/h N -1,6 C 2,4 C 0,8 km/h
02.01.2014 18:00 0,9 C 80 % 1013,5 hPa 0,0 l/m 0,2 km/h N -2,2 C 0,9 C 1,6 km/h
02.01.2014 19:00 -0,1 C 83 % 1014,0 hPa 0,0 l/m 0,1 km/h N -2,7 C -0,1 C 1,2 km/h
02.01.2014 20:00 0,5 C 85 % 1014,4 hPa 0,0 l/m 0,2 km/h N -1,7 C 0,5 C 0,8 km/h
02.01.2014 21:00 1,0 C 86 % 1014,8 hPa 0,0 l/m 0,0 km/h N -1,1 C 1,0 C 1,2 km/h
02.01.2014 22:00 1,5 C 86 % 1015,3 hPa 0,0 l/m 0,1 km/h N -0,6 C 1,5 C 1,2 km/h
02.01.2014 23:00 1,9 C 86 % 1015,8 hPa 0,3 l/m 0,1 km/h N -0,2 C 1,9 C 0,4 km/h
03.01.2014 00:00 2,6 C 85 % 1015,6 hPa 0,0 l/m 1,6 km/h N 0,4 C 2,6 C 5,6 km/h
03.01.2014 01:00 2,7 C 86 % 1015,8 hPa 0,0 l/m 0,4 km/h N 0,5 C 2,7 C 3,6 km/h
03.01.2014 02:00 2,0 C 86 % 1016,4 hPa 0,0 l/m 0,0 km/h N -0,0 C 2,0 C 0,0 km/h
03.01.2014 03:00 1,1 C 86 % 1016,7 hPa 0,0 l/m 0,0 km/h N -0,9 C 1,1 C 1,6 km/h
03.01.2014 04:00 0,0 C 86 % 1016,9 hPa 0,0 l/m 0,0 km/h N -2,1 C 0,0 C 0,0 km/h
03.01.2014 05:00 -0,8 C 86 % 1017,1 hPa 0,0 l/m 0,1 km/h N -2,9 C -0,8 C 2,0 km/h
03.01.2014 06:00 -1,1 C 85 % 1017,3 hPa 0,0 l/m 0,1 km/h N -3,3 C -1,1 C 2,4 km/h
03.01.2014 07:00 -1,5 C 85 % 1017,5 hPa 0,0 l/m 0,0 km/h N -3,7 C -1,5 C 0,8 km/h
03.01.2014 08:00 -1,8 C 85 % 1017,9 hPa 0,0 l/m 0,0 km/h N -4,1 C -1,8 C 0,0 km/h
03.01.2014 09:00 0,1 C 82 % 1017,8 hPa 0,3 l/m 0,0 km/h N -2,7 C 0,1 C 0,0 km/h
03.01.2014 10:00 2,8 C 82 % 1017,5 hPa 0,0 l/m 0,1 km/h N 0,0 C 2,8 C 2,0 km/h
03.01.2014 11:00 4,0 C 84 % 1017,0 hPa 0,0 l/m 0,4 km/h N 1,6 C 4,0 C 4,4 km/h
03.01.2014 12:00 4,7 C 83 % 1016,3 hPa 0,0 l/m 0,4 km/h N 2,0 C 4,7 C 4,8 km/h
03.01.2014 13:00 4,7 C 83 % 1016,2 hPa 0,0 l/m 0,3 km/h N 2,1 C 4,7 C 3,6 km/h
03.01.2014 14:00 4,7 C 84 % 1016,2 hPa 0,0 l/m 0,0 km/h N 2,1 C 4,7 C 1,6 km/h
03.01.2014 15:00 4,5 C 84 % 1016,3 hPa 0,0 l/m 0,0 km/h N 2,0 C 4,5 C 1,6 km/h
03.01.2014 16:00 3,5 C 85 % 1016,7 hPa 0,0 l/m 0,0 km/h N 1,2 C 3,5 C 2,0 km/h
03.01.2014 17:00 2,5 C 86 % 1016,9 hPa 0,0 l/m 0,0 km/h N 0,4 C 2,5 C 0,8 km/h
03.01.2014 18:00 1,6 C 86 % 1017,1 hPa 0,0 l/m 0,0 km/h N -0,5 C 1,6 C 0,0 km/h
03.01.2014 19:00 0,0 C 86 % 1017,8 hPa 0,0 l/m 0,0 km/h N -2,1 C 0,0 C 0,0 km/h
03.01.2014 20:00 -0,9 C 87 % 1018,3 hPa 0,0 l/m 0,0 km/h N -2,8 C -0,9 C 0,0 km/h
03.01.2014 21:00 -1,1 C 85 % 1018,6 hPa 0,0 l/m 0,0 km/h N -3,3 C -1,1 C 0,4 km/h
03.01.2014 22:00 -0,6 C 84 % 1018,7 hPa 0,0 l/m 0,2 km/h N -3,0 C -0,6 C 2,0 km/h
03.01.2014 23:00 0,4 C 83 % 1018,6 hPa 0,0 l/m 0,0 km/h N -2,2 C 0,4 C 0,4 km/h
04.01.2014 00:00 1,0 C 82 % 1018,7 hPa 0,0 l/m 0,0 km/h N -1,7 C 1,0 C 0,0 km/h
04.01.2014 01:00 1,3 C 82 % 1019,1 hPa 0,0 l/m 0,2 km/h N -1,5 C 1,3 C 1,6 km/h
04.01.2014 02:00 1,3 C 82 % 1019,7 hPa 0,0 l/m 0,0 km/h N -1,4 C 1,3 C 0,4 km/h
04.01.2014 03:00 1,3 C 82 % 1020,2 hPa 0,0 l/m 0,1 km/h N -1,5 C 1,3 C 2,0 km/h
04.01.2014 04:00 1,3 C 81 % 1020,1 hPa 0,0 l/m 0,0 km/h N -1,5 C 1,3 C 0,0 km/h
04.01.2014 05:00 0,8 C 82 % 1019,9 hPa 0,0 l/m 0,2 km/h N -2,0 C 0,8 C 1,6 km/h
04.01.2014 06:00 0,2 C 82 % 1019,9 hPa 0,0 l/m 0,0 km/h N -2,5 C 0,2 C 1,2 km/h
04.01.2014 07:00 -0,4 C 82 % 1020,0 hPa 0,0 l/m 0,0 km/h N -3,1 C -0,4 C 0,8 km/h
04.01.2014 08:00 -0,3 C 81 % 1020,8 hPa 0,0 l/m 0,0 km/h N -3,2 C -0,3 C 0,4 km/h
04.01.2014 09:00 1,1 C 80 % 1020,6 hPa 0,0 l/m 0,3 km/h N -2,0 C 1,1 C 3,2 km/h
04.01.2014 10:00 2,3 C 79 % 1020,0 hPa 0,0 l/m 0,6 km/h N -1,0 C 2,3 C 3,2 km/h
04.01.2014 11:00 2,7 C 79 % 1018,9 hPa 0,0 l/m 2,2 km/h N -0,5 C 2,7 C 6,8 km/h
04.01.2014 12:00 2,7 C 79 % 1017,8 hPa 0,0 l/m 2,2 km/h N -0,6 C 2,7 C 7,2 km/h
04.01.2014 13:00 2,9 C 79 % 1016,3 hPa 0,0 l/m 2,4 km/h N -0,3 C 2,9 C 8,0 km/h
04.01.2014 14:00 2,9 C 79 % 1015,4 hPa 0,0 l/m 4,7 km/h N -0,4 C 2,9 C 11,3 km/h
04.01.2014 15:00 2,5 C 80 % 1014,4 hPa 0,0 l/m 6,1 km/h N -0,7 C 1,5 C 18,1 km/h
04.01.2014 16:00 3,1 C 79 % 1013,1 hPa 0,0 l/m 5,9 km/h N -0,2 C 2,2 C 15,3 km/h
04.01.2014 17:00 3,8 C 79 % 1012,2 hPa 0,0 l/m 2,5 km/h N 0,5 C 3,8 C 9,3 km/h
04.01.2014 18:00 4,4 C 79 % 1011,1 hPa 0,0 l/m 4,5 km/h N 1,0 C 3,9 C 14,9 km/h
04.01.2014 19:00 5,4 C 78 % 1010,0 hPa 0,0 l/m 3,9 km/h N 1,9 C 5,4 C 12,1 km/h
04.01.2014 20:00 6,2 C 77 % 1008,8 hPa 0,0 l/m 5,2 km/h N 2,5 C 6,2 C 16,9 km/h
04.01.2014 21:00 6,7 C 77 % 1007,9 hPa 0,0 l/m 6,0 km/h N 3,0 C 6,4 C 17,3 km/h
04.01.2014 22:00 7,6 C 78 % 1006,8 hPa 0,0 l/m 6,7 km/h N 3,9 C 6,7 C 19,7 km/h
04.01.2014 23:00 7,9 C 81 % 1006,7 hPa 0,0 l/m 1,1 km/h N 4,9 C 7,9 C 5,2 km/h
05.01.2014 00:00 8,3 C 85 % 1005,6 hPa 0,0 l/m 7,5 km/h N 5,9 C 7,1 C 16,9 km/h
05.01.2014 01:00 8,3 C 85 % 1005,0 hPa 0,0 l/m 4,3 km/h N 5,8 C 8,3 C 12,9 km/h
05.01.2014 02:00 8,1 C 85 % 1005,1 hPa 0,0 l/m 2,2 km/h N 5,6 C 8,1 C 10,1 km/h
05.01.2014 03:00 7,9 C 85 % 1004,4 hPa 0,0 l/m 1,5 km/h N 5,5 C 7,9 C 6,8 km/h
05.01.2014 04:00 8,3 C 85 % 1003,5 hPa 0,0 l/m 2,8 km/h N 5,9 C 8,3 C 10,9 km/h
05.01.2014 05:00 9,0 C 85 % 1002,8 hPa 0,0 l/m 5,5 km/h N 6,6 C 8,8 C 17,7 km/h
05.01.2014 06:00 8,9 C 85 % 1002,7 hPa 0,0 l/m 0,6 km/h N 6,5 C 8,9 C 5,2 km/h
05.01.2014 07:00 8,5 C 85 % 1002,8 hPa 0,0 l/m 0,3 km/h N 6,1 C 8,5 C 3,2 km/h
05.01.2014 08:00 7,5 C 85 % 1003,6 hPa 0,0 l/m 0,0 km/h N 5,1 C 7,5 C 0,0 km/h
05.01.2014 09:00 7,2 C 85 % 1004,2 hPa 0,0 l/m 0,5 km/h N 4,8 C 7,2 C 2,8 km/h
05.01.2014 10:00 8,5 C 83 % 1004,7 hPa 0,0 l/m 0,3 km/h N 5,7 C 8,5 C 3,2 km/h
05.01.2014 11:00 9,4 C 83 % 1005,5 hPa 0,0 l/m 3,8 km/h N 6,7 C 8,6 C 12,9 km/h
05.01.2014 12:00 9,3 C 79 % 1006,5 hPa 0,0 l/m 8,1 km/h N 5,7 C 8,1 C 20,5 km/h
05.01.2014 13:00 9,4 C 75 % 1007,2 hPa 0,0 l/m 8,8 km/h N 5,1 C 7,7 C 26,1 km/h
05.01.2014 14:00 9,1 C 77 % 1008,5 hPa 0,0 l/m 10,1 km/h N 5,2 C 6,6 C 27,4 km/h
05.01.2014 15:00 8,6 C 74 % 1009,8 hPa 0,0 l/m 8,3 km/h N 4,2 C 7,2 C 28,2 km/h
05.01.2014 16:00 7,9 C 75 % 1011,2 hPa 0,0 l/m 8,6 km/h N 3,6 C 6,1 C 25,3 km/h
05.01.2014 17:00 7,0 C 78 % 1012,5 hPa 0,0 l/m 11,4 km/h N 3,5 C 3,4 C 33,4 km/h
05.01.2014 18:00 6,7 C 79 % 1013,5 hPa 0,0 l/m 11,1 km/h N 3,4 C 3,3 C 28,2 km/h
05.01.2014 19:00 7,1 C 79 % 1014,5 hPa 0,0 l/m 7,0 km/h N 3,7 C 6,6 C 23,7 km/h
05.01.2014 20:00 6,8 C 82 % 1015,2 hPa 0,5 l/m 4,6 km/h N 3,9 C 6,5 C 18,5 km/h
05.01.2014 21:00 6,8 C 82 % 1015,8 hPa 0,0 l/m 5,8 km/h N 3,9 C 6,2 C 17,3 km/h
05.01.2014 22:00 6,9 C 81 % 1016,1 hPa 0,3 l/m 7,7 km/h N 3,8 C 5,8 C 21,3 km/h
05.01.2014 23:00 7,1 C 79 % 1016,3 hPa 0,0 l/m 7,7 km/h N 3,7 C 6,1 C 18,5 km/h
Min-Datum _ 03.01.14 30.12.13 05.01.14 - 30.12.13 - 03.01.14 03.01.14 30.12.13
_ Min-Zeit 08:15 00:00 05:00 - 16:30 - 08:30 08:00 16:30
Minimum _ -1,9 C 65 % 1002,6 hPa - 0,0 km/h - -4,2 C -1,9 C 0,0 km/h
Max-Datum _ 05.01.14 03.01.14 30.12.13 05.01.14 05.01.14 - 05.01.14 05.01.14 05.01.14
_ Max-Zeit 13:00 20:30 10:00 20:00 17:30 - 11:30 11:15 17:30
Maximum _ 9,5 C 92 % 1030,6 hPa 0,5 l/m 12,4 km/h
N
- 6,8 C 9,4 C 41,8 km/h
N
Durchschnitt _ 3,9 C 81 % 1017,8 hPa #1,8 l/m 2,2 km/h N 0,9 C 3,7 C 7,5 km/h